Speedwell, Tennessee
Current Conditions -  °F | °C
As of 5:55 PM on Saturday 25 Oct 2014 (Local Time) from K1A6 Reporting Station
Scattered Clouds Scattered Clouds  
Wind Chill: 67°   Ceiling: Unl
Heat Index: 67°   Visibility: 10mi
Dew Point: 52°   Wind: 5mph
Humidity: 57%   Direction: 290°WNW
Pressure: 30.01"   Gusts: NA
Location:  36.46°N, 83.87°W
Report Text: K1A6 252155Z AUTO 29004KT 10SM SCT036 SCT046 SCT065 20/11 A3001 RMK AO2 T01950109
Loading
Personal Weather Stations






























Interactive Weather Map
Tropical Storm Tracking
New forecast layout! Learn more

10-Day Weather Forecast

Advertisements
Track Severe Weather on mobile